Time;durP1;ratioP1;P1;durP2;ratioP2;P2;SDS_P1;SDS_P2;PMS_P1;PMS_P2;Temp;Humidity;BMP_temperature;BMP_pressure;BME280_temperature;BME280_humidity;BME280_pressure;Samples;Min_cycle;Max_cycle;Signal;HPM_P1;HPM_P2
2023/01/30 00:00:54;;;;;;;7.45;4.57;;;;;;;;;;5062535;28;20032;-69
2023/01/30 00:03:20;;;;;;;7.38;4.68;;;;;;;;;;5079604;28;20048;-69
2023/01/30 00:05:46;;;;;;;8.75;4.90;;;;;;;;;;5079924;28;20032;-69
2023/01/30 00:08:11;;;;;;;8.32;4.50;;;;;;;;;;5080361;28;20020;-74
2023/01/30 00:10:37;;;;;;;7.95;4.60;;;;;;;;;;5079955;28;20040;-71
2023/01/30 00:13:02;;;;;;;8.80;4.93;;;;;;;;;;5080207;28;20025;-70
2023/01/30 00:15:27;;;;;;;7.38;4.40;;;;;;;;;;5079853;28;20025;-71
2023/01/30 00:17:53;;;;;;;8.25;4.70;;;;;;;;;;5080078;28;20368;-69
2023/01/30 00:20:18;;;;;;;8.30;4.70;;;;;;;;;;5079796;28;20032;-70
2023/01/30 00:22:43;;;;;;;8.27;4.75;;;;;;;;;;5079965;28;20024;-69
2023/01/30 00:25:09;;;;;;;7.88;4.53;;;;;;;;;;5079952;28;20123;-70
2023/01/30 00:27:34;;;;;;;8.88;4.78;;;;;;;;;;5079928;28;20036;-69
2023/01/30 00:30:03;;;;;;;8.80;4.88;;;;;;;;;;5080217;28;20052;-70
2023/01/30 00:32:28;;;;;;;7.90;4.50;;;;;;;;;;5079884;28;20024;-70
2023/01/30 00:34:54;;;;;;;8.48;4.93;;;;;;;;;;5079354;28;20255;-70
2023/01/30 00:37:19;;;;;;;8.30;4.63;;;;;;;;;;5081075;28;20365;-70
2023/01/30 00:39:44;;;;;;;8.05;4.50;;;;;;;;;;5083624;28;20054;-69
2023/01/30 00:47:37;;;;;;;8.30;4.35;;;;;;;;;;5083220;28;20036;-71
2023/01/30 00:50:03;;;;;;;8.38;4.97;;;;;;;;;;5083020;28;20017;-69
2023/01/30 00:52:28;;;;;;;8.40;4.88;;;;;;;;;;5083217;28;20355;-69
2023/01/30 00:54:54;;;;;;;8.50;4.88;;;;;;;;;;5083159;28;20048;-70
2023/01/30 00:57:19;;;;;;;9.35;5.03;;;;;;;;;;5083076;28;20396;-69
2023/01/30 00:59:45;;;;;;;8.70;4.90;;;;;;;;;;5083141;28;20025;-70
2023/01/30 01:02:10;;;;;;;10.10;5.32;;;;;;;;;;5082996;28;20045;-70
2023/01/30 01:04:42;;;;;;;8.00;5.00;;;;;;;;;;5064599;28;20059;-69
2023/01/30 01:07:11;;;;;;;10.65;5.20;;;;;;;;;;5083133;28;20032;-69
2023/01/30 01:09:37;;;;;;;8.57;5.30;;;;;;;;;;5082255;28;20047;-69
2023/01/30 01:12:03;;;;;;;9.45;5.07;;;;;;;;;;5082848;28;20033;-69
2023/01/30 01:14:28;;;;;;;7.85;4.97;;;;;;;;;;5082658;28;20036;-70
2023/01/30 01:16:54;;;;;;;8.35;4.93;;;;;;;;;;5082861;28;20028;-69
2023/01/30 01:19:19;;;;;;;10.48;5.88;;;;;;;;;;5082643;28;20036;-70
2023/01/30 01:21:45;;;;;;;9.57;5.53;;;;;;;;;;5082677;28;20087;-70
2023/01/30 01:24:14;;;;;;;9.65;5.55;;;;;;;;;;5082794;28;20024;-70
2023/01/30 01:26:40;;;;;;;9.18;5.40;;;;;;;;;;5082623;28;20035;-70
2023/01/30 01:29:06;;;;;;;9.38;5.85;;;;;;;;;;5082542;28;20025;-70
2023/01/30 01:31:31;;;;;;;11.55;6.10;;;;;;;;;;5082740;28;20092;-72
2023/01/30 01:33:57;;;;;;;11.27;6.28;;;;;;;;;;5081763;28;20283;-72
2023/01/30 01:36:22;;;;;;;11.75;5.82;;;;;;;;;;5082260;28;20316;-74
2023/01/30 01:38:48;;;;;;;11.88;6.50;;;;;;;;;;5098396;28;20039;-70
2023/01/30 01:41:15;;;;;;;9.95;6.00;;;;;;;;;;5082099;28;20028;-70
2023/01/30 01:44:01;;;;;;;11.18;6.32;;;;;;;;;;5082346;28;20193;-70
2023/01/30 01:46:32;;;;;;;10.82;6.05;;;;;;;;;;5064270;28;20044;-70
2023/01/30 01:49:01;;;;;;;10.18;5.55;;;;;;;;;;5081142;28;20330;-71
2023/01/30 01:51:36;;;;;;;10.23;5.53;;;;;;;;;;5081963;28;20343;-69
2023/01/30 01:54:12;;;;;;;11.07;5.55;;;;;;;;;;5081869;28;20032;-69
2023/01/30 01:56:41;;;;;;;10.68;5.75;;;;;;;;;;5081835;28;20024;-70
2023/01/30 01:59:18;;;;;;;9.75;5.50;;;;;;;;;;5082065;28;20099;-69
2023/01/30 02:01:43;;;;;;;9.65;5.70;;;;;;;;;;5081847;28;20050;-71
2023/01/30 02:04:09;;;;;;;10.60;5.85;;;;;;;;;;5081350;28;20063;-71
2023/01/30 02:06:38;;;;;;;10.23;5.88;;;;;;;;;;5097415;28;20297;-70
2023/01/30 02:09:09;;;;;;;10.60;5.65;;;;;;;;;;5081726;28;20055;-71
2023/01/30 02:11:51;;;;;;;9.05;5.43;;;;;;;;;;5081702;28;20043;-72
2023/01/30 02:14:18;;;;;;;9.23;5.40;;;;;;;;;;5081552;28;20036;-70
2023/01/30 02:16:45;;;;;;;12.13;5.72;;;;;;;;;;5081596;28;20028;-70
2023/01/30 02:19:43;;;;;;;10.75;5.85;;;;;;;;;;5081338;28;20054;-70
2023/01/30 02:22:35;;;;;;;9.75;5.90;;;;;;;;;;5080984;28;20090;-72
2023/01/30 02:25:16;;;;;;;10.18;5.35;;;;;;;;;;5081234;28;20034;-70
2023/01/30 02:28:06;;;;;;;9.98;5.43;;;;;;;;;;5081151;28;20054;-70
2023/01/30 02:30:50;;;;;;;8.60;5.40;;;;;;;;;;5063693;28;20062;-69
2023/01/30 02:34:04;;;;;;;8.95;5.60;;;;;;;;;;5080706;28;20039;-70
2023/01/30 02:36:50;;;;;;;10.10;5.30;;;;;;;;;;5057331;28;20075;-71
2023/01/30 02:39:18;;;;;;;9.10;5.30;;;;;;;;;;5081201;28;20035;-70
2023/01/30 02:42:22;;;;;;;10.82;5.20;;;;;;;;;;5081017;28;20032;-70
2023/01/30 02:45:02;;;;;;;8.95;5.00;;;;;;;;;;5081003;28;20086;-69
2023/01/30 02:47:53;;;;;;;9.38;5.43;;;;;;;;;;5080932;28;20028;-70
2023/01/30 02:50:25;;;;;;;8.52;4.93;;;;;;;;;;5080078;28;20063;-70
2023/01/30 02:52:52;;;;;;;7.38;4.65;;;;;;;;;;5080922;28;20135;-73
2023/01/30 02:55:23;;;;;;;8.30;4.78;;;;;;;;;;5080891;28;20036;-72
2023/01/30 02:57:48;;;;;;;;;;;;;;;;;;5081160;28;20094;-70
2023/01/30 03:00:37;;;;;;;8.00;4.65;;;;;;;;;;5080144;28;20201;-69
2023/01/30 03:03:21;;;;;;;7.82;4.50;;;;;;;;;;5066312;28;20329;-70
2023/01/30 03:06:10;;;;;;;7.97;4.55;;;;;;;;;;5080735;28;20035;-69
2023/01/30 03:08:51;;;;;;;7.65;4.47;;;;;;;;;;5080898;28;20083;-69
2023/01/30 03:11:17;;;;;;;7.05;4.28;;;;;;;;;;5080847;28;20062;-70
2023/01/30 03:14:01;;;;;;;7.10;4.40;;;;;;;;;;5080718;28;20314;-70
2023/01/30 03:16:38;;;;;;;7.40;4.57;;;;;;;;;;5080551;28;20477;-70
2023/01/30 03:19:08;;;;;;;7.30;4.22;;;;;;;;;;5080198;28;20120;-69
2023/01/30 03:21:33;;;;;;;7.20;4.50;;;;;;;;;;5062756;28;20263;-70
2023/01/30 03:23:59;;;;;;;7.55;4.28;;;;;;;;;;5080656;28;20271;-70
2023/01/30 03:26:29;;;;;;;7.20;4.20;;;;;;;;;;5080402;28;20020;-70
2023/01/30 03:28:55;;;;;;;8.25;4.53;;;;;;;;;;5080369;28;20064;-70
2023/01/30 03:31:20;;;;;;;7.00;4.40;;;;;;;;;;5080695;28;20036;-69
2023/01/30 03:33:46;;;;;;;5.75;3.78;;;;;;;;;;5079949;28;20035;-71
2023/01/30 03:36:12;;;;;;;6.45;4.20;;;;;;;;;;5080223;28;20224;-69
2023/01/30 03:38:37;;;;;;;7.60;4.20;;;;;;;;;;5080340;28;20029;-70
2023/01/30 03:41:04;;;;;;;6.18;3.97;;;;;;;;;;5080469;28;20320;-69
2023/01/30 03:43:29;;;;;;;7.55;4.47;;;;;;;;;;5080535;28;20036;-69
2023/01/30 03:45:55;;;;;;;8.60;5.30;;;;;;;;;;5062505;28;20497;-70
2023/01/30 03:48:20;;;;;;;7.60;4.63;;;;;;;;;;5079862;28;20016;-71
2023/01/30 03:50:45;;;;;;;8.32;4.32;;;;;;;;;;5080349;28;20024;-70
2023/01/30 03:53:11;;;;;;;7.50;4.80;;;;;;;;;;5082156;28;20039;-70
2023/01/30 03:55:36;;;;;;;7.75;4.53;;;;;;;;;;5081587;28;20033;-69
2023/01/30 03:58:02;;;;;;;6.35;4.28;;;;;;;;;;5080352;28;20036;-70
2023/01/30 04:00:27;;;;;;;8.00;4.30;;;;;;;;;;5062608;28;20035;-69
2023/01/30 04:02:53;;;;;;;6.53;4.05;;;;;;;;;;5080145;28;20074;-69
2023/01/30 04:05:19;;;;;;;6.80;4.20;;;;;;;;;;5079803;28;20024;-70
2023/01/30 04:07:45;;;;;;;6.20;3.90;;;;;;;;;;5080228;28;20062;-70
2023/01/30 04:10:10;;;;;;;7.32;4.00;;;;;;;;;;5079981;28;20332;-70
2023/01/30 04:12:35;;;;;;;6.07;3.78;;;;;;;;;;5082191;28;20032;-69
2023/01/30 04:15:01;;;;;;;6.47;3.97;;;;;;;;;;5083798;28;20095;-71
2023/01/30 04:17:26;;;;;;;6.15;4.00;;;;;;;;;;5083937;28;20047;-70
2023/01/30 04:19:51;;;;;;;6.10;3.70;;;;;;;;;;5083529;28;20036;-74
2023/01/30 04:22:17;;;;;;;5.90;3.88;;;;;;;;;;5083981;28;20043;-70
2023/01/30 04:24:42;;;;;;;6.03;3.40;;;;;;;;;;5083599;28;20037;-69
2023/01/30 04:27:08;;;;;;;6.07;3.60;;;;;;;;;;5083694;28;20051;-69
2023/01/30 04:29:34;;;;;;;6.20;3.55;;;;;;;;;;5083543;28;20274;-70
2023/01/30 04:31:59;;;;;;;6.07;3.50;;;;;;;;;;5083666;28;20304;-70
2023/01/30 04:34:24;;;;;;;5.75;3.38;;;;;;;;;;5083066;28;20252;-70
2023/01/30 04:36:50;;;;;;;5.28;3.22;;;;;;;;;;5083359;28;20051;-70
2023/01/30 04:39:15;;;;;;;5.15;3.33;;;;;;;;;;5083417;28;20036;-69
2023/01/30 04:41:41;;;;;;;5.43;3.22;;;;;;;;;;5083611;28;20033;-69
2023/01/30 04:44:06;;;;;;;5.10;3.20;;;;;;;;;;5065429;28;20035;-70
2023/01/30 04:46:31;;;;;;;5.88;3.33;;;;;;;;;;5083192;28;20028;-70
2023/01/30 04:48:57;;;;;;;4.55;2.80;;;;;;;;;;5082889;28;20370;-70
2023/01/30 04:51:22;;;;;;;4.70;2.90;;;;;;;;;;5083290;28;20055;-69
2023/01/30 04:53:47;;;;;;;4.75;2.90;;;;;;;;;;5083078;28;20028;-69
2023/01/30 04:56:13;;;;;;;5.15;2.70;;;;;;;;;;5083236;28;20028;-71
2023/01/30 04:58:38;;;;;;;4.55;2.80;;;;;;;;;;5083162;28;20039;-70
2023/01/30 05:01:32;;;;;;;4.28;2.80;;;;;;;;;;5065250;28;20024;-70
2023/01/30 05:03:57;;;;;;;4.72;3.00;;;;;;;;;;5079222;28;20052;-71
2023/01/30 05:06:23;;;;;;;5.15;2.75;;;;;;;;;;5082805;28;20040;-70
2023/01/30 05:08:50;;;;;;;4.45;2.90;;;;;;;;;;5082977;28;20040;-70
2023/01/30 05:11:15;;;;;;;5.40;2.88;;;;;;;;;;5082996;28;20031;-69
2023/01/30 05:13:42;;;;;;;3.97;2.65;;;;;;;;;;5082923;28;20091;-69
2023/01/30 05:16:08;;;;;;;4.55;2.80;;;;;;;;;;5082745;28;20363;-68
2023/01/30 05:18:34;;;;;;;5.47;2.95;;;;;;;;;;5082478;28;20029;-70
2023/01/30 05:21:09;;;;;;;4.72;2.88;;;;;;;;;;5082744;28;20032;-69
2023/01/30 05:23:35;;;;;;;4.25;2.78;;;;;;;;;;5081551;28;20224;-69
2023/01/30 05:26:01;;;;;;;6.70;3.05;;;;;;;;;;5082447;28;20024;-70
2023/01/30 05:28:28;;;;;;;5.03;3.03;;;;;;;;;;5082876;28;20235;-69
2023/01/30 05:30:53;;;;;;;5.28;3.17;;;;;;;;;;5082527;28;20055;-70
2023/01/30 05:33:19;;;;;;;5.18;3.28;;;;;;;;;;5082651;28;20028;-69
2023/01/30 05:35:48;;;;;;;4.88;2.90;;;;;;;;;;5081926;28;20039;-70
2023/01/30 05:38:14;;;;;;;4.80;2.97;;;;;;;;;;5082429;28;20028;-71
2023/01/30 05:40:40;;;;;;;7.30;3.13;;;;;;;;;;5082245;28;20020;-71
2023/01/30 05:43:05;;;;;;;6.20;3.20;;;;;;;;;;5082350;28;20024;-72
2023/01/30 05:45:30;;;;;;;5.57;3.50;;;;;;;;;;5082088;28;20952;-72
2023/01/30 05:47:56;;;;;;;6.45;3.53;;;;;;;;;;5082372;28;20047;-70
2023/01/30 05:50:21;;;;;;;4.80;3.00;;;;;;;;;;5081883;28;20039;-70
2023/01/30 05:52:47;;;;;;;4.70;2.90;;;;;;;;;;5082176;28;20056;-69
2023/01/30 05:55:12;;;;;;;5.60;3.33;;;;;;;;;;5082001;28;20039;-70
2023/01/30 05:57:38;;;;;;;6.45;3.25;;;;;;;;;;5082225;28;20327;-69
2023/01/30 06:00:05;;;;;;;6.28;3.20;;;;;;;;;;5083910;28;20035;-71
2023/01/30 06:02:30;;;;;;;4.45;2.90;;;;;;;;;;5084523;28;20324;-69
2023/01/30 06:04:56;;;;;;;5.90;3.38;;;;;;;;;;5081965;28;20040;-71
2023/01/30 06:07:21;;;;;;;5.93;3.40;;;;;;;;;;5082061;28;20406;-70
2023/01/30 06:09:47;;;;;;;5.97;3.42;;;;;;;;;;5081827;28;20035;-69
2023/01/30 06:12:12;;;;;;;5.80;3.67;;;;;;;;;;5081872;28;20021;-70
2023/01/30 06:14:37;;;;;;;4.70;3.13;;;;;;;;;;5081498;28;20028;-71
2023/01/30 06:17:03;;;;;;;6.90;3.95;;;;;;;;;;5081090;28;20032;-69
2023/01/30 06:19:29;;;;;;;5.65;3.75;;;;;;;;;;5081505;28;20024;-70
2023/01/30 06:21:54;;;;;;;5.53;3.60;;;;;;;;;;5081572;28;20036;-68
2023/01/30 06:24:19;;;;;;;6.82;3.50;;;;;;;;;;5081694;28;20067;-69
2023/01/30 06:26:45;;;;;;;6.00;3.60;;;;;;;;;;5063678;28;20028;-70
2023/01/30 06:29:10;;;;;;;7.00;3.38;;;;;;;;;;5085594;28;20040;-71
2023/01/30 06:31:36;;;;;;;5.75;3.47;;;;;;;;;;5088271;28;20028;-70
2023/01/30 06:34:01;;;;;;;5.40;3.40;;;;;;;;;;5088277;28;20188;-70
2023/01/30 06:36:26;;;;;;;6.00;3.60;;;;;;;;;;5081148;28;20028;-69
2023/01/30 06:38:52;;;;;;;6.75;3.42;;;;;;;;;;5081963;28;20047;-71
2023/01/30 06:41:17;;;;;;;6.13;3.50;;;;;;;;;;5080620;28;20272;-72
2023/01/30 06:43:43;;;;;;;6.53;3.90;;;;;;;;;;5063229;28;20055;-70
2023/01/30 06:46:08;;;;;;;8.32;3.55;;;;;;;;;;5081099;28;20027;-69
2023/01/30 06:48:34;;;;;;;7.43;3.70;;;;;;;;;;5080540;28;20044;-68
2023/01/30 06:50:59;;;;;;;5.57;3.40;;;;;;;;;;5080860;28;20028;-70
2023/01/30 06:53:29;;;;;;;5.85;3.58;;;;;;;;;;5081024;28;20096;-70
2023/01/30 06:55:56;;;;;;;6.95;3.92;;;;;;;;;;5080983;28;20042;-68
2023/01/30 06:58:21;;;;;;;6.32;3.70;;;;;;;;;;5080945;28;20025;-69
2023/01/30 07:00:46;;;;;;;7.47;4.22;;;;;;;;;;5080913;28;20028;-70
2023/01/30 07:03:14;;;;;;;5.78;3.60;;;;;;;;;;5080954;28;20119;-71
2023/01/30 07:05:41;;;;;;;5.68;3.97;;;;;;;;;;5080309;28;20084;-74
2023/01/30 07:08:07;;;;;;;7.50;4.82;;;;;;;;;;5080702;28;20016;-73
2023/01/30 07:10:34;;;;;;;10.18;4.40;;;;;;;;;;5080716;28;20056;-71
2023/01/30 07:12:59;;;;;;;7.43;4.10;;;;;;;;;;5080643;28;20037;-70
2023/01/30 07:15:25;;;;;;;7.70;4.60;;;;;;;;;;5080617;28;20039;-70
2023/01/30 07:17:52;;;;;;;7.43;4.03;;;;;;;;;;5080762;28;20028;-71
2023/01/30 07:20:17;;;;;;;7.05;4.18;;;;;;;;;;5080330;28;20028;-71
2023/01/30 07:22:48;;;;;;;6.45;3.85;;;;;;;;;;5080683;28;20024;-70
2023/01/30 07:25:14;;;;;;;7.60;4.00;;;;;;;;;;5080481;28;20046;-69
2023/01/30 07:27:40;;;;;;;6.55;3.78;;;;;;;;;;5080485;28;20296;-70
2023/01/30 07:30:06;;;;;;;6.63;3.70;;;;;;;;;;5080804;28;20084;-70
2023/01/30 07:32:31;;;;;;;7.15;4.10;;;;;;;;;;5080486;28;20439;-70
2023/01/30 07:34:56;;;;;;;6.63;3.78;;;;;;;;;;5080155;28;20029;-69
2023/01/30 07:37:22;;;;;;;6.10;3.72;;;;;;;;;;5080138;28;20025;-70
2023/01/30 07:39:47;;;;;;;5.43;3.35;;;;;;;;;;5080200;28;20021;-70
2023/01/30 07:42:13;;;;;;;6.22;3.70;;;;;;;;;;5062390;28;20047;-69
2023/01/30 07:44:38;;;;;;;6.93;3.70;;;;;;;;;;5080396;28;20028;-71
2023/01/30 07:47:04;;;;;;;6.50;3.95;;;;;;;;;;5081272;28;20024;-70
2023/01/30 07:49:29;;;;;;;9.05;4.28;;;;;;;;;;5084198;28;20047;-69
2023/01/30 07:51:55;;;;;;;5.50;3.45;;;;;;;;;;5084514;28;20024;-70
2023/01/30 07:54:20;;;;;;;5.60;3.60;;;;;;;;;;5084403;28;20328;-69
2023/01/30 07:56:45;;;;;;;7.03;3.70;;;;;;;;;;5083946;28;20041;-70
2023/01/30 07:59:11;;;;;;;6.90;3.85;;;;;;;;;;5084478;28;20066;-70
2023/01/30 08:01:37;;;;;;;8.85;3.78;;;;;;;;;;5084085;28;20029;-69
2023/01/30 08:04:03;;;;;;;5.90;3.53;;;;;;;;;;5083894;28;20044;-69
2023/01/30 08:06:28;;;;;;;8.43;3.70;;;;;;;;;;5084152;28;20032;-69
2023/01/30 08:08:53;;;;;;;7.03;4.00;;;;;;;;;;5066431;28;20273;-72
2023/01/30 08:11:19;;;;;;;7.05;3.83;;;;;;;;;;5084159;28;20060;-70
2023/01/30 08:13:45;;;;;;;6.18;3.90;;;;;;;;;;5084084;28;20347;-69
2023/01/30 08:16:11;;;;;;;5.78;3.50;;;;;;;;;;5083994;28;20062;-70
2023/01/30 08:18:36;;;;;;;5.82;3.80;;;;;;;;;;5083530;28;20024;-70
2023/01/30 08:21:04;;;;;;;6.93;3.95;;;;;;;;;;5083861;28;20031;-69
2023/01/30 08:23:30;;;;;;;6.20;3.72;;;;;;;;;;5084011;28;20036;-70
2023/01/30 08:25:58;;;;;;;7.85;4.25;;;;;;;;;;5083909;28;20037;-71
2023/01/30 08:28:24;;;;;;;7.75;4.20;;;;;;;;;;5083700;28;20020;-73
2023/01/30 08:30:52;;;;;;;7.20;4.18;;;;;;;;;;5083804;28;20112;-75
2023/01/30 08:33:18;;;;;;;6.38;4.03;;;;;;;;;;5083556;28;20089;-70
2023/01/30 08:35:43;;;;;;;6.82;3.90;;;;;;;;;;5083345;28;20419;-73
2023/01/30 08:38:09;;;;;;;9.60;4.30;;;;;;;;;;5085281;28;20249;-71
2023/01/30 08:40:35;;;;;;;6.82;4.22;;;;;;;;;;5085481;28;20098;-71
2023/01/30 08:43:00;;;;;;;9.48;4.95;;;;;;;;;;5079486;28;20483;-71
2023/01/30 08:45:26;;;;;;;7.47;4.40;;;;;;;;;;5083172;28;20042;-71
2023/01/30 08:47:51;;;;;;;9.77;4.70;;;;;;;;;;5078900;28;20028;-71
2023/01/30 08:50:17;;;;;;;6.00;3.88;;;;;;;;;;5074925;28;20024;-73
2023/01/30 08:52:42;;;;;;;8.88;4.40;;;;;;;;;;5074154;28;20417;-74
2023/01/30 08:55:08;;;;;;;10.82;4.55;;;;;;;;;;5073912;28;20047;-72
2023/01/30 08:57:34;;;;;;;11.50;4.50;;;;;;;;;;5074585;28;20032;-72
2023/01/30 09:00:00;;;;;;;9.15;4.43;;;;;;;;;;5075092;28;20028;-72
2023/01/30 09:02:25;;;;;;;6.80;4.00;;;;;;;;;;5079068;28;20060;-73
2023/01/30 09:04:51;;;;;;;8.48;4.53;;;;;;;;;;5082393;28;20033;-74
2023/01/30 09:07:16;;;;;;;5.80;3.72;;;;;;;;;;5082677;28;20021;-72
2023/01/30 09:09:43;;;;;;;12.07;4.40;;;;;;;;;;5091168;28;20283;-72
2023/01/30 09:12:08;;;;;;;8.68;4.43;;;;;;;;;;5080414;28;20037;-73
2023/01/30 09:14:33;;;;;;;7.88;4.55;;;;;;;;;;5081083;28;20043;-70
2023/01/30 09:16:59;;;;;;;10.05;4.50;;;;;;;;;;5080559;28;20142;-71
2023/01/30 09:19:26;;;;;;;7.85;4.55;;;;;;;;;;5081090;28;20263;-71
2023/01/30 09:21:53;;;;;;;6.70;4.18;;;;;;;;;;5082547;28;20370;-72
2023/01/30 09:24:19;;;;;;;6.82;4.20;;;;;;;;;;5082472;28;20024;-69
2023/01/30 09:26:44;;;;;;;6.18;4.15;;;;;;;;;;5076346;28;20029;-69
2023/01/30 09:29:11;;;;;;;7.47;3.95;;;;;;;;;;5080677;28;20048;-71
2023/01/30 09:31:36;;;;;;;7.10;4.40;;;;;;;;;;5073000;28;20087;-69
2023/01/30 09:34:02;;;;;;;7.45;4.03;;;;;;;;;;5067285;28;20036;-72
2023/01/30 09:36:27;;;;;;;6.70;4.05;;;;;;;;;;5070961;28;20028;-69
2023/01/30 09:38:53;;;;;;;7.47;4.00;;;;;;;;;;5073153;28;20495;-71
2023/01/30 09:41:29;;;;;;;7.47;3.90;;;;;;;;;;5074837;28;20071;-70
2023/01/30 09:44:11;;;;;;;5.95;3.58;;;;;;;;;;5069112;28;20063;-70
2023/01/30 09:46:53;;;;;;;4.75;3.35;;;;;;;;;;5073345;28;20032;-71
2023/01/30 09:49:40;;;;;;;5.75;3.60;;;;;;;;;;5070109;28;20060;-70
2023/01/30 09:52:23;;;;;;;7.03;3.80;;;;;;;;;;5070698;28;20082;-70
2023/01/30 09:54:57;;;;;;;8.90;4.38;;;;;;;;;;5072737;28;20047;-69
2023/01/30 09:57:24;;;;;;;7.13;4.10;;;;;;;;;;5072025;28;20052;-71
2023/01/30 10:00:08;;;;;;;6.40;3.67;;;;;;;;;;5069015;28;20075;-71
2023/01/30 10:02:36;;;;;;;5.07;3.60;;;;;;;;;;5071489;28;20443;-72
2023/01/30 10:05:03;;;;;;;4.68;3.30;;;;;;;;;;5073684;28;20037;-72
2023/01/30 10:07:36;;;;;;;6.00;3.85;;;;;;;;;;5070570;28;20040;-71
2023/01/30 10:10:14;;;;;;;20.63;8.57;;;;;;;;;;5068830;28;20063;-71
2023/01/30 10:13:17;;;;;;;5.38;3.72;;;;;;;;;;5069798;28;20043;-71
2023/01/30 10:16:14;;;;;;;6.28;3.70;;;;;;;;;;5068438;28;20646;-71
2023/01/30 10:19:10;;;;;;;5.70;3.50;;;;;;;;;;5067349;28;20039;-72
2023/01/30 10:21:39;;;;;;;5.78;3.75;;;;;;;;;;5068426;28;20362;-71
2023/01/30 10:24:32;;;;;;;7.00;3.83;;;;;;;;;;5068167;28;20043;-71
2023/01/30 10:26:58;;;;;;;6.32;3.78;;;;;;;;;;5068426;28;20070;-72
2023/01/30 10:29:38;;;;;;;6.13;3.80;;;;;;;;;;5069011;28;20044;-71
2023/01/30 10:32:08;;;;;;;6.13;3.70;;;;;;;;;;5069678;28;20055;-70
2023/01/30 10:34:38;;;;;;;5.37;3.63;;;;;;;;;;5069435;28;20067;-71
2023/01/30 10:37:12;;;;;;;5.70;4.10;;;;;;;;;;5069397;28;20251;-71
2023/01/30 10:39:40;;;;;;;5.13;3.60;;;;;;;;;;5069359;28;20025;-70
2023/01/30 10:42:12;;;;;;;5.32;3.70;;;;;;;;;;5069422;28;20504;-74
2023/01/30 10:44:40;;;;;;;5.88;3.70;;;;;;;;;;5069387;28;20025;-74
2023/01/30 10:48:04;;;;;;;5.72;3.80;;;;;;;;;;5069658;28;20031;-70
2023/01/30 10:50:44;;;;;;;5.32;3.53;;;;;;;;;;5026006;28;20033;-71
2023/01/30 10:53:31;;;;;;;5.10;3.70;;;;;;;;;;5026684;28;20048;-71
2023/01/30 10:56:17;;;;;;;5.68;3.90;;;;;;;;;;5062359;28;20105;-70
2023/01/30 10:59:22;;;;;;;6.53;4.00;;;;;;;;;;5068539;28;20495;-72
2023/01/30 11:02:06;;;;;;;7.35;3.72;;;;;;;;;;5068789;28;20045;-72
2023/01/30 11:04:45;;;;;;;5.65;3.75;;;;;;;;;;5068741;28;20074;-72
2023/01/30 11:07:12;;;;;;;6.45;3.47;;;;;;;;;;5071398;28;20032;-70
2023/01/30 11:09:40;;;;;;;5.20;3.70;;;;;;;;;;5069471;28;20058;-70
2023/01/30 11:12:05;;;;;;;12.57;3.92;;;;;;;;;;5072535;28;20207;-70
2023/01/30 11:14:53;;;;;;;6.07;4.13;;;;;;;;;;5068550;28;20556;-70
2023/01/30 11:17:21;;;;;;;5.65;3.92;;;;;;;;;;5071633;28;20024;-70
2023/01/30 11:19:55;;;;;;;5.25;3.53;;;;;;;;;;5068413;28;20154;-70
2023/01/30 11:22:24;;;;;;;4.88;3.47;;;;;;;;;;5068404;28;20035;-71
2023/01/30 11:25:09;;;;;;;6.65;3.88;;;;;;;;;;5050798;28;20423;-73
2023/01/30 11:27:35;;;;;;;7.18;3.42;;;;;;;;;;5069153;28;20554;-70
2023/01/30 11:30:12;;;;;;;6.20;3.90;;;;;;;;;;5068380;28;20017;-71
2023/01/30 11:32:37;;;;;;;7.28;3.55;;;;;;;;;;5068525;28;20036;-72
2023/01/30 11:35:05;;;;;;;6.95;3.70;;;;;;;;;;5069957;28;20081;-72
2023/01/30 11:37:38;;;;;;;6.25;3.80;;;;;;;;;;5068800;28;20516;-72
2023/01/30 11:40:25;;;;;;;6.00;3.97;;;;;;;;;;5070386;28;20104;-73
2023/01/30 11:43:09;;;;;;;6.07;4.07;;;;;;;;;;5069060;28;20032;-73
2023/01/30 11:45:38;;;;;;;5.72;3.80;;;;;;;;;;5068915;28;20531;-73
2023/01/30 11:48:11;;;;;;;5.70;3.58;;;;;;;;;;5071740;28;20028;-72
2023/01/30 11:50:43;;;;;;;6.00;4.15;;;;;;;;;;5074808;28;20024;-71
2023/01/30 11:53:36;;;;;;;7.45;4.60;;;;;;;;;;5079693;28;20043;-73
2023/01/30 11:56:11;;;;;;;6.45;4.00;;;;;;;;;;5070608;28;20105;-71
2023/01/30 11:58:45;;;;;;;6.30;4.32;;;;;;;;;;5069216;28;20032;-72
2023/01/30 12:01:11;;;;;;;7.07;3.80;;;;;;;;;;5069330;28;20020;-70
2023/01/30 12:03:53;;;;;;;6.15;4.05;;;;;;;;;;5068245;28;20037;-73
2023/01/30 12:06:27;;;;;;;6.25;3.80;;;;;;;;;;5068602;28;20028;-73
2023/01/30 12:08:53;;;;;;;5.65;3.90;;;;;;;;;;5052776;28;20025;-75
2023/01/30 12:11:24;;;;;;;5.72;3.80;;;;;;;;;;5073867;28;20108;-79
2023/01/30 12:13:50;;;;;;;7.03;3.97;;;;;;;;;;5078149;28;20096;-73
2023/01/30 12:16:33;;;;;;;6.68;3.85;;;;;;;;;;5070076;28;20069;-70
2023/01/30 12:19:01;;;;;;;6.78;4.30;;;;;;;;;;5067103;28;20025;-75
2023/01/30 12:21:38;;;;;;;6.55;4.10;;;;;;;;;;5067639;28;20032;-73
2023/01/30 12:24:31;;;;;;;6.05;3.70;;;;;;;;;;5067376;28;20097;-74
2023/01/30 12:27:10;;;;;;;6.70;4.18;;;;;;;;;;5067891;28;20053;-76
2023/01/30 12:29:44;;;;;;;6.85;4.03;;;;;;;;;;5067672;28;20055;-76
2023/01/30 12:32:12;;;;;;;8.52;4.00;;;;;;;;;;5050417;28;20020;-74
2023/01/30 12:34:39;;;;;;;8.80;4.03;;;;;;;;;;5071051;28;20029;-72
2023/01/30 12:37:29;;;;;;;5.65;3.90;;;;;;;;;;5072525;28;20028;-74
2023/01/30 12:40:10;;;;;;;6.10;3.90;;;;;;;;;;5071505;28;20025;-74
2023/01/30 12:42:54;;;;;;;;;;;;;;;;;;5072331;28;20016;-76
2023/01/30 12:45:23;;;;;;;6.03;3.75;;;;;;;;;;5071630;28;20302;-76
2023/01/30 12:48:09;;;;;;;6.63;3.70;;;;;;;;;;5071904;28;20099;-73
2023/01/30 12:50:44;;;;;;;6.38;3.80;;;;;;;;;;5070876;28;20044;-74
2023/01/30 12:53:18;;;;;;;6.35;3.88;;;;;;;;;;5071736;28;20037;-72
2023/01/30 12:55:49;;;;;;;5.45;3.60;;;;;;;;;;5071712;28;20028;-77
2023/01/30 12:58:44;;;;;;;5.53;3.70;;;;;;;;;;5068892;28;20389;-73
2023/01/30 13:01:09;;;;;;;5.10;3.72;;;;;;;;;;5069983;28;20551;-72
2023/01/30 13:04:01;;;;;;;6.95;3.83;;;;;;;;;;5064468;28;20450;-72
2023/01/30 13:06:35;;;;;;;9.13;4.13;;;;;;;;;;5066570;28;20040;-72
2023/01/30 13:09:43;;;;;;;7.18;4.13;;;;;;;;;;5081916;28;20016;-72
2023/01/30 13:12:27;;;;;;;6.95;4.30;;;;;;;;;;5077390;28;20024;-74
2023/01/30 13:15:01;;;;;;;6.70;3.75;;;;;;;;;;5065510;28;20040;-72
2023/01/30 13:17:51;;;;;;;7.50;4.60;;;;;;;;;;5050940;28;20036;-72
2023/01/30 13:20:27;;;;;;;7.32;4.45;;;;;;;;;;5052343;28;20036;-72
2023/01/30 13:23:16;;;;;;;8.48;4.45;;;;;;;;;;5057099;28;20025;-72
2023/01/30 13:25:50;;;;;;;6.82;3.85;;;;;;;;;;5051685;28;20032;-72
2023/01/30 13:28:18;;;;;;;5.85;3.78;;;;;;;;;;5051252;28;20028;-71
2023/01/30 13:30:46;;;;;;;7.18;4.13;;;;;;;;;;5053135;28;20021;-72
2023/01/30 13:33:31;;;;;;;7.30;3.97;;;;;;;;;;5049587;28;20021;-72
2023/01/30 13:36:09;;;;;;;8.02;3.97;;;;;;;;;;5032228;28;20036;-72
2023/01/30 13:38:40;;;;;;;7.50;4.65;;;;;;;;;;5065085;28;20031;-72
2023/01/30 13:41:11;;;;;;;7.30;4.25;;;;;;;;;;5063360;28;20467;-72
2023/01/30 13:43:45;;;;;;;6.35;4.00;;;;;;;;;;5054544;28;20604;-73
2023/01/30 13:46:16;;;;;;;7.32;4.28;;;;;;;;;;5052290;28;20087;-73
2023/01/30 13:48:44;;;;;;;;;;;;;;;;;;5052179;28;20035;-71
2023/01/30 13:51:18;;;;;;;8.20;4.30;;;;;;;;;;5053241;28;19969;-72
2023/01/30 13:54:22;;;;;;;7.65;4.45;;;;;;;;;;5049503;28;20027;-72
2023/01/30 13:57:20;;;;;;;7.65;4.35;;;;;;;;;;5049422;28;20441;-76
2023/01/30 14:00:11;;;;;;;7.03;4.40;;;;;;;;;;5042694;28;20099;-73
2023/01/30 14:02:37;;;;;;;6.68;4.13;;;;;;;;;;5018905;28;20126;-73
2023/01/30 14:05:04;;;;;;;5.88;3.88;;;;;;;;;;5049880;28;20076;-72
2023/01/30 14:07:38;;;;;;;7.85;4.60;;;;;;;;;;5032606;28;20036;-73
2023/01/30 14:10:11;;;;;;;7.65;4.07;;;;;;;;;;5049972;28;20032;-73
2023/01/30 14:12:44;;;;;;;7.30;4.05;;;;;;;;;;5049967;28;20126;-72
2023/01/30 14:15:12;;;;;;;10.00;4.20;;;;;;;;;;5049689;28;20037;-72
2023/01/30 14:17:38;;;;;;;6.95;4.30;;;;;;;;;;5050036;28;20072;-72
2023/01/30 14:20:11;;;;;;;7.18;4.30;;;;;;;;;;5049576;28;20519;-72
2023/01/30 14:22:50;;;;;;;7.32;4.05;;;;;;;;;;5049073;28;20017;-73
2023/01/30 14:25:22;;;;;;;8.32;4.40;;;;;;;;;;5049854;28;20040;-73
2023/01/30 14:27:52;;;;;;;6.85;4.22;;;;;;;;;;5050292;28;20396;-73
2023/01/30 14:30:30;;;;;;;;;;;;;;;;;;5056316;28;20068;-73
2023/01/30 14:32:57;;;;;;;7.28;4.50;;;;;;;;;;5058607;28;19916;-72
2023/01/30 14:35:25;;;;;;;12.80;4.93;;;;;;;;;;5034888;28;20066;-73
2023/01/30 14:38:08;;;;;;;8.02;4.60;;;;;;;;;;5050325;28;20029;-72
2023/01/30 14:40:36;;;;;;;11.32;4.60;;;;;;;;;;5049250;28;20040;-73
2023/01/30 14:43:10;;;;;;;8.02;4.57;;;;;;;;;;5049680;28;20504;-75
2023/01/30 14:45:51;;;;;;;7.13;4.55;;;;;;;;;;5049043;28;20028;-72
2023/01/30 14:48:42;;;;;;;9.68;4.93;;;;;;;;;;5049498;28;20028;-73
2023/01/30 14:51:34;;;;;;;9.93;5.03;;;;;;;;;;5049835;28;20053;-71
2023/01/30 14:54:05;;;;;;;7.28;4.32;;;;;;;;;;5049479;28;20079;-73
2023/01/30 14:56:48;;;;;;;8.25;4.60;;;;;;;;;;5049090;28;20033;-73
2023/01/30 14:59:32;;;;;;;6.88;4.18;;;;;;;;;;5049447;28;20116;-72
2023/01/30 15:02:25;;;;;;;7.45;4.45;;;;;;;;;;5048935;28;20041;-77
2023/01/30 15:05:08;;;;;;;8.20;4.80;;;;;;;;;;5048925;28;20484;-72
2023/01/30 15:07:55;;;;;;;7.07;4.20;;;;;;;;;;5049024;28;20036;-75
2023/01/30 15:10:41;;;;;;;8.05;4.47;;;;;;;;;;5052553;28;20025;-71
2023/01/30 15:13:06;;;;;;;7.28;4.40;;;;;;;;;;5057264;28;20028;-73